createdAt,value
2018-01-17T00:00:07.072Z,88.25
2018-01-17T00:02:35.468Z,87.85
2018-01-17T00:05:03.859Z,87.45
2018-01-17T00:07:32.251Z,87.33
2018-01-17T00:10:00.604Z,86.85
2018-01-17T00:12:28.952Z,86.41
2018-01-17T00:14:58.207Z,85.89
2018-01-17T00:17:26.717Z,85.94
2018-01-17T00:19:55.117Z,85.82
2018-01-17T00:22:23.545Z,85.38
2018-01-17T00:24:52.026Z,85.48
2018-01-17T00:27:20.399Z,85.47
2018-01-17T00:29:48.821Z,85.71
2018-01-17T00:32:18.063Z,86.05
2018-01-17T00:34:46.565Z,86.16
2018-01-17T00:37:15.065Z,85.98
2018-01-17T00:39:44.240Z,86.04
2018-01-17T00:42:12.724Z,86.02
2018-01-17T00:44:41.185Z,86.18
2018-01-17T00:47:09.647Z,86.34
2018-01-17T00:49:38.064Z,86.32
2018-01-17T00:52:06.589Z,86.42
2018-01-17T00:54:34.976Z,86.59
2018-01-17T00:57:03.388Z,86.63
2018-01-17T00:59:31.785Z,86.84
2018-01-17T01:02:00.160Z,87.01
2018-01-17T01:04:28.625Z,87.22
2018-01-17T01:06:57.048Z,87.10
2018-01-17T01:09:25.452Z,87.01
2018-01-17T01:11:54.598Z,86.65
2018-01-17T01:14:23.099Z,86.08
2018-01-17T01:16:51.587Z,86.31
2018-01-17T01:19:20.789Z,86.85
2018-01-17T01:21:49.259Z,86.89
2018-01-17T01:24:17.804Z,87.00
2018-01-17T01:26:46.336Z,87.18
2018-01-17T01:29:15.531Z,87.29
2018-01-17T01:31:44.047Z,87.37
2018-01-17T01:34:12.487Z,87.57
2018-01-17T01:36:40.952Z,87.77
2018-01-17T01:39:09.584Z,87.93
2018-01-17T01:41:38.094Z,88.12
2018-01-17T01:44:06.575Z,88.22
2018-01-17T01:46:35.055Z,87.98
2018-01-17T01:49:03.535Z,87.84
2018-01-17T01:51:31.932Z,87.89
2018-01-17T01:54:00.333Z,87.99
2018-01-17T01:56:28.871Z,88.10
2018-01-17T01:58:57.311Z,88.29
2018-01-17T02:01:26.497Z,88.12
2018-01-17T02:03:54.854Z,88.10
2018-01-17T02:06:23.249Z,88.13
2018-01-17T02:08:51.758Z,88.28
2018-01-17T02:11:21.004Z,88.58
2018-01-17T02:13:49.408Z,88.85
2018-01-17T02:16:17.817Z,88.80
2018-01-17T02:18:47.346Z,89.11
2018-01-17T02:21:15.718Z,89.42
2018-01-17T02:23:44.099Z,89.71
2018-01-17T02:26:12.483Z,89.63
2018-01-17T02:28:40.837Z,89.63
2018-01-17T02:31:14.824Z,89.59
2018-01-17T02:33:43.240Z,89.26
2018-01-17T02:36:11.641Z,89.30
2018-01-17T02:38:40.029Z,89.17
2018-01-17T02:41:08.509Z,89.15
2018-01-17T02:43:36.868Z,89.04
2018-01-17T02:46:05.411Z,89.04
2018-01-17T02:48:34.655Z,89.10
2018-01-17T02:51:03.182Z,89.28
2018-01-17T02:53:31.627Z,89.21
2018-01-17T02:56:00.084Z,89.28
2018-01-17T02:58:28.547Z,89.28
2018-01-17T03:00:57.745Z,89.22
2018-01-17T03:03:26.930Z,89.28
2018-01-17T03:05:55.395Z,88.97
2018-01-17T03:08:23.879Z,88.74
2018-01-17T03:10:52.544Z,88.52
2018-01-17T03:13:24.789Z,88.37
2018-01-17T03:15:53.481Z,88.30
2018-01-17T03:18:22.007Z,88.38
2018-01-17T03:20:50.399Z,88.45
2018-01-17T03:23:18.925Z,88.37
2018-01-17T03:25:47.407Z,88.48
2018-01-17T03:28:15.800Z,88.57
2018-01-17T03:30:44.263Z,88.72
2018-01-17T03:33:12.664Z,88.81
2018-01-17T03:35:41.053Z,88.92
2018-01-17T03:38:09.579Z,89.08
2018-01-17T03:40:38.011Z,89.07
2018-01-17T03:43:06.464Z,89.03
2018-01-17T03:45:34.973Z,89.01
2018-01-17T03:48:03.448Z,88.98
2018-01-17T03:50:31.833Z,89.19
2018-01-17T03:53:00.359Z,89.29
2018-01-17T03:55:28.833Z,89.27
2018-01-17T03:57:58.070Z,89.18
2018-01-17T04:00:26.752Z,89.11
2018-01-17T04:02:55.272Z,89.00
2018-01-17T04:05:23.689Z,88.92
2018-01-17T04:07:52.948Z,89.04
2018-01-17T04:10:21.483Z,89.21
2018-01-17T04:12:49.974Z,89.27
2018-01-17T04:15:18.455Z,89.38
2018-01-17T04:17:46.959Z,89.35
2018-01-17T04:20:15.489Z,89.46
2018-01-17T04:22:44.009Z,89.59
2018-01-17T04:25:12.480Z,89.63
2018-01-17T04:27:40.961Z,89.71
2018-01-17T04:30:09.385Z,89.87
2018-01-17T04:32:37.821Z,90.25
2018-01-17T04:35:06.382Z,90.38
2018-01-17T04:37:34.913Z,90.65
2018-01-17T04:40:03.377Z,90.70
2018-01-17T04:42:31.839Z,90.77
2018-01-17T04:45:00.300Z,90.67
2018-01-17T04:47:29.632Z,90.81
2018-01-17T04:49:58.187Z,90.72
2018-01-17T04:52:27.477Z,90.86
2018-01-17T04:54:56.706Z,91.15
2018-01-17T04:57:25.186Z,91.11
2018-01-17T04:59:54.081Z,91.19
2018-01-17T05:02:22.483Z,91.17
2018-01-17T05:04:50.862Z,91.17
2018-01-17T05:07:19.346Z,91.15
2018-01-17T05:09:47.746Z,91.19
2018-01-17T05:12:16.203Z,91.16
2018-01-17T05:14:44.670Z,91.01
2018-01-17T05:17:13.088Z,90.68
2018-01-17T05:19:41.630Z,90.30
2018-01-17T05:22:10.058Z,90.21
2018-01-17T05:24:38.454Z,90.19
2018-01-17T05:27:07.699Z,89.69
2018-01-17T05:29:36.175Z,89.70
2018-01-17T05:32:04.835Z,89.42
2018-01-17T05:34:33.548Z,89.18
2018-01-17T05:37:02.067Z,88.98
2018-01-17T05:39:30.575Z,88.80
2018-01-17T05:42:00.172Z,88.67
2018-01-17T05:44:28.580Z,88.51
2018-01-17T05:46:57.036Z,88.43
2018-01-17T05:49:26.239Z,88.30
2018-01-17T05:51:55.372Z,88.10
2018-01-17T05:54:23.800Z,87.66
2018-01-17T05:56:52.379Z,87.33
2018-01-17T05:59:20.738Z,87.29
2018-01-17T06:01:49.156Z,87.84
2018-01-17T06:04:18.311Z,89.13
2018-01-17T06:06:46.668Z,89.84
2018-01-17T06:09:15.043Z,90.98
2018-01-17T06:11:43.412Z,92.06
2018-01-17T06:14:11.860Z,92.65
2018-01-17T06:16:40.975Z,92.86
2018-01-17T06:19:10.093Z,93.69
2018-01-17T06:21:38.533Z,94.23
2018-01-17T06:24:07.727Z,94.77
2018-01-17T06:26:36.940Z,95.01
2018-01-17T06:29:06.991Z,95.48
2018-01-17T06:31:35.430Z,95.83
2018-01-17T06:34:04.755Z,95.90
2018-01-17T06:36:33.175Z,96.04
2018-01-17T06:39:01.591Z,96.12
2018-01-17T06:41:30.808Z,96.15
2018-01-17T06:43:59.204Z,96.08
2018-01-17T06:46:27.637Z,95.93
2018-01-17T06:48:56.078Z,95.88
2018-01-17T06:51:24.444Z,95.79
2018-01-17T06:53:52.793Z,95.69
2018-01-17T06:56:22.000Z,95.63
2018-01-17T06:58:50.424Z,95.59
2018-01-17T07:01:18.797Z,95.55
2018-01-17T07:03:47.196Z,95.58
2018-01-17T07:06:16.387Z,95.51
2018-01-17T07:08:44.800Z,95.65
2018-01-17T07:11:13.992Z,95.38
2018-01-17T07:13:43.196Z,95.56
2018-01-17T07:16:12.320Z,95.81
2018-01-17T07:18:40.739Z,95.62
2018-01-17T07:21:09.182Z,95.44
2018-01-17T07:23:37.594Z,95.17
2018-01-17T07:28:41.304Z,94.78
2018-01-17T07:31:09.743Z,94.54
2018-01-17T07:33:38.923Z,94.17
2018-01-17T07:36:08.149Z,93.56
2018-01-17T07:38:36.516Z,93.46
2018-01-17T07:41:05.624Z,93.25
2018-01-17T07:43:34.817Z,92.90
2018-01-17T07:46:03.271Z,93.03
2018-01-17T07:48:31.692Z,93.10
2018-01-17T07:51:00.135Z,92.69
2018-01-17T07:53:29.331Z,92.69
2018-01-17T07:55:58.460Z,92.52
2018-01-17T07:58:26.841Z,92.32
2018-01-17T08:00:55.186Z,92.11
2018-01-17T08:03:23.591Z,91.74
2018-01-17T08:05:51.966Z,91.81
2018-01-17T08:08:21.090Z,91.58
2018-01-17T08:10:49.485Z,91.32
2018-01-17T08:13:17.906Z,90.93
2018-01-17T08:15:47.030Z,92.92
2018-01-17T08:18:15.392Z,90.12
2018-01-17T08:20:44.563Z,90.14
2018-01-17T08:23:12.945Z,90.13
2018-01-17T08:25:41.296Z,90.04
2018-01-17T08:28:09.649Z,89.60
2018-01-17T08:30:38.075Z,89.47
2018-01-17T08:33:06.436Z,89.42
2018-01-17T08:35:34.871Z,89.15
2018-01-17T08:38:03.292Z,88.42
2018-01-17T08:40:31.910Z,87.58
2018-01-17T08:43:01.029Z,87.30
2018-01-17T08:45:30.168Z,86.86
2018-01-17T08:47:58.533Z,86.63
2018-01-17T08:50:26.952Z,86.21
2018-01-17T08:52:55.330Z,86.55
2018-01-17T08:55:23.678Z,85.62
2018-01-17T08:57:52.125Z,85.47
2018-01-17T09:00:20.541Z,85.68
2018-01-17T09:02:48.979Z,85.43
2018-01-17T09:05:17.424Z,85.90
2018-01-17T09:07:45.817Z,85.51
2018-01-17T09:10:14.261Z,85.40
2018-01-17T09:12:42.655Z,85.43
2018-01-17T09:15:11.010Z,85.86
2018-01-17T09:17:39.380Z,85.71
2018-01-17T09:20:07.800Z,86.29
2018-01-17T09:22:36.160Z,86.69
2018-01-17T09:25:04.544Z,86.60
2018-01-17T09:27:32.883Z,86.95
2018-01-17T09:30:01.224Z,87.29
2018-01-17T09:32:29.597Z,86.94
2018-01-17T09:34:58.015Z,87.98
2018-01-17T09:37:26.484Z,87.63
2018-01-17T09:39:54.899Z,87.35
2018-01-17T09:42:23.323Z,86.37
2018-01-17T09:44:52.468Z,85.81
2018-01-17T09:47:20.924Z,84.35
2018-01-17T09:49:49.277Z,83.60
2018-01-17T09:52:17.716Z,84.30
2018-01-17T09:54:46.171Z,84.12
2018-01-17T09:57:14.600Z,84.63
2018-01-17T09:59:42.988Z,84.31
2018-01-17T10:02:11.336Z,84.66
2018-01-17T10:04:39.684Z,84.40
2018-01-17T10:07:08.071Z,83.92
2018-01-17T10:09:36.489Z,83.53
2018-01-17T10:12:04.872Z,83.04
2018-01-17T10:14:33.307Z,83.30
2018-01-17T10:17:01.953Z,82.95
2018-01-17T10:19:30.375Z,83.04
2018-01-17T10:21:58.790Z,83.13
2018-01-17T10:24:27.169Z,83.20
2018-01-17T10:26:55.514Z,82.25
2018-01-17T10:29:23.967Z,82.46
2018-01-17T10:31:53.152Z,83.04
2018-01-17T10:34:22.276Z,83.26
2018-01-17T10:36:50.655Z,82.55
2018-01-17T10:39:19.089Z,82.38
2018-01-17T10:41:47.456Z,82.48
2018-01-17T10:44:15.891Z,82.02
2018-01-17T10:46:44.304Z,82.44
2018-01-17T10:49:12.676Z,81.82
2018-01-17T10:51:41.107Z,81.71
2018-01-17T10:54:10.296Z,81.63
2018-01-17T10:56:38.757Z,81.39
2018-01-17T10:59:07.202Z,81.23
2018-01-17T11:01:35.622Z,81.08
2018-01-17T11:04:04.012Z,81.09
2018-01-17T11:06:32.361Z,81.62
2018-01-17T11:09:00.791Z,81.79
2018-01-17T11:11:29.207Z,81.64
2018-01-17T11:13:57.649Z,81.80
2018-01-17T11:16:26.847Z,81.70
2018-01-17T11:18:56.066Z,81.32
2018-01-17T11:21:24.420Z,81.94
2018-01-17T11:23:52.830Z,81.32
2018-01-17T11:26:21.304Z,81.68
2018-01-17T11:28:49.750Z,81.59
2018-01-17T11:31:18.108Z,81.59
2018-01-17T11:33:46.551Z,81.77
2018-01-17T11:36:14.979Z,82.54
2018-01-17T11:38:43.373Z,82.24
2018-01-17T11:41:11.737Z,82.03
2018-01-17T11:43:40.104Z,83.09
2018-01-17T11:46:08.547Z,82.78
2018-01-17T11:48:36.918Z,83.91
2018-01-17T11:51:05.324Z,84.44
2018-01-17T11:53:33.702Z,85.65
2018-01-17T11:56:02.044Z,85.54
2018-01-17T11:58:31.180Z,86.08
2018-01-17T12:00:59.584Z,86.52
2018-01-17T12:03:28.002Z,86.03
2018-01-17T12:05:57.120Z,85.47
2018-01-17T12:08:25.498Z,86.06
2018-01-17T12:10:53.886Z,85.04
2018-01-17T12:13:22.307Z,84.37
2018-01-17T12:15:50.698Z,82.68
2018-01-17T12:18:19.120Z,82.33
2018-01-17T12:20:47.535Z,81.58
2018-01-17T12:23:15.934Z,81.46
2018-01-17T12:25:44.289Z,80.44
2018-01-17T12:28:12.636Z,80.69
2018-01-17T12:30:41.016Z,79.70
2018-01-17T12:33:09.452Z,79.24
2018-01-17T12:35:37.855Z,78.21
2018-01-17T12:38:06.223Z,77.84
2018-01-17T12:40:35.428Z,77.80
2018-01-17T12:43:03.853Z,78.72
2018-01-17T12:45:32.276Z,79.30
2018-01-17T12:48:01.480Z,79.20
2018-01-17T12:50:29.871Z,79.63
2018-01-17T12:52:58.280Z,79.63
2018-01-17T12:55:26.654Z,79.44
2018-01-17T12:57:55.033Z,79.29
2018-01-17T13:00:23.422Z,78.93
2018-01-17T13:02:51.848Z,78.85
2018-01-17T13:05:21.051Z,77.96
2018-01-17T13:07:50.247Z,78.40
2018-01-17T13:10:19.459Z,78.23
2018-01-17T13:12:47.836Z,78.12
2018-01-17T13:15:17.015Z,78.48
2018-01-17T13:17:46.218Z,78.99
2018-01-17T13:20:15.451Z,79.42
2018-01-17T13:22:43.808Z,79.63
2018-01-17T13:25:12.992Z,79.35
2018-01-17T13:27:42.227Z,79.24
2018-01-17T13:30:10.669Z,79.50
2018-01-17T13:32:39.800Z,79.12
2018-01-17T13:35:08.286Z,78.58
2018-01-17T13:37:36.628Z,78.57
2018-01-17T13:40:05.776Z,77.75
2018-01-17T13:42:34.194Z,78.18
2018-01-17T13:45:03.313Z,78.28
2018-01-17T13:47:31.696Z,78.03
2018-01-17T13:50:00.128Z,77.66
2018-01-17T13:52:28.480Z,77.57
2018-01-17T13:54:56.853Z,77.31
2018-01-17T13:57:25.263Z,76.94
2018-01-17T13:59:53.644Z,77.40
2018-01-17T14:02:22.083Z,77.03
2018-01-17T14:04:50.511Z,76.06
2018-01-17T14:07:18.942Z,76.34
2018-01-17T14:09:47.384Z,76.47
2018-01-17T14:12:16.567Z,77.29
2018-01-17T14:14:45.050Z,77.40
2018-01-17T14:17:13.432Z,77.74
2018-01-17T14:19:41.789Z,77.00
2018-01-17T14:22:10.229Z,75.50
2018-01-17T14:24:38.600Z,74.89
2018-01-17T14:27:07.044Z,74.80
2018-01-17T14:29:35.464Z,75.83
2018-01-17T14:32:03.912Z,75.95
2018-01-17T14:34:32.272Z,75.49
2018-01-17T14:37:00.614Z,76.13
2018-01-17T14:39:28.985Z,76.06
2018-01-17T14:41:57.416Z,76.32
2018-01-17T14:44:25.782Z,76.39
2018-01-17T14:46:54.200Z,76.21
2018-01-17T14:49:23.448Z,76.00
2018-01-17T14:51:51.788Z,75.63
2018-01-17T14:54:20.959Z,75.38
2018-01-17T14:56:50.113Z,74.94
2018-01-17T14:59:18.465Z,75.32
2018-01-17T15:01:47.658Z,75.41
2018-01-17T15:04:16.032Z,75.19
2018-01-17T15:06:45.223Z,75.52
2018-01-17T15:09:14.376Z,76.30
2018-01-17T15:11:42.804Z,75.87
2018-01-17T15:14:11.939Z,76.41
2018-01-17T15:16:40.347Z,76.16
2018-01-17T15:19:08.741Z,76.35
2018-01-17T15:21:37.192Z,76.58
2018-01-17T15:24:05.657Z,76.56
2018-01-17T15:26:34.013Z,76.60
2018-01-17T15:29:03.144Z,76.76
2018-01-17T15:31:31.525Z,76.46
2018-01-17T15:33:59.979Z,76.50
2018-01-17T15:36:28.443Z,76.72
2018-01-17T15:38:56.903Z,76.77
2018-01-17T15:41:26.095Z,76.82
2018-01-17T15:43:55.315Z,76.71
2018-01-17T15:46:24.452Z,76.85
2018-01-17T15:48:52.800Z,77.45
2018-01-17T15:51:21.936Z,76.88
2018-01-17T15:53:50.375Z,77.33
2018-01-17T15:56:18.780Z,76.66
2018-01-17T15:58:47.231Z,76.96
2018-01-17T16:01:15.626Z,77.24
2018-01-17T16:03:44.089Z,77.45
2018-01-17T16:06:12.501Z,77.53
2018-01-17T16:08:40.916Z,78.04
2018-01-17T16:11:09.308Z,77.94
2018-01-17T16:13:37.845Z,78.03
2018-01-17T16:16:06.204Z,78.07
2018-01-17T16:18:34.788Z,78.40
2018-01-17T16:21:03.218Z,79.09
2018-01-17T16:23:31.582Z,79.42
2018-01-17T16:26:00.734Z,79.33
2018-01-17T16:28:29.149Z,79.38
2018-01-17T16:30:57.590Z,79.77
2018-01-17T16:33:26.047Z,80.78
2018-01-17T16:35:55.260Z,80.41
2018-01-17T16:38:24.488Z,80.64
2018-01-17T16:40:52.847Z,80.99
2018-01-17T16:43:21.998Z,81.16
2018-01-17T16:45:50.456Z,81.25
2018-01-17T16:48:18.864Z,81.60
2018-01-17T16:50:47.257Z,81.81
2018-01-17T16:53:15.852Z,81.83
2018-01-17T16:55:44.241Z,82.60
2018-01-17T16:58:13.382Z,82.55
2018-01-17T17:00:42.928Z,82.86
2018-01-17T17:03:12.066Z,82.91
2018-01-17T17:05:40.494Z,83.04
2018-01-17T17:08:08.892Z,82.87
2018-01-17T17:10:38.067Z,82.49
2018-01-17T17:13:06.474Z,82.63
2018-01-17T17:15:35.653Z,82.64
2018-01-17T17:18:04.092Z,82.36
2018-01-17T17:20:32.551Z,82.65
2018-01-17T17:23:00.977Z,82.11
2018-01-17T17:25:30.105Z,81.87
2018-01-17T17:27:59.236Z,82.25
2018-01-17T17:30:28.459Z,82.62
2018-01-17T17:32:56.855Z,82.58
2018-01-17T17:35:25.296Z,82.45
2018-01-17T17:37:53.752Z,82.23
2018-01-17T17:40:22.109Z,82.42
2018-01-17T17:42:50.556Z,82.58
2018-01-17T17:45:18.955Z,82.41
2018-01-17T17:47:47.409Z,82.30
2018-01-17T17:50:15.880Z,82.40
2018-01-17T17:52:44.330Z,82.31
2018-01-17T17:55:12.720Z,82.53
2018-01-17T17:57:41.143Z,82.96
2018-01-17T18:00:09.521Z,82.66
2018-01-17T18:02:38.072Z,82.64
2018-01-17T18:05:06.500Z,82.91
2018-01-17T18:07:34.951Z,83.16
2018-01-17T18:10:03.384Z,83.61
2018-01-17T18:12:31.801Z,83.70
2018-01-17T18:15:00.220Z,83.98
2018-01-17T18:17:28.652Z,83.68
2018-01-17T18:19:57.128Z,83.28
2018-01-17T18:22:25.572Z,83.40
2018-01-17T18:24:54.038Z,83.12
2018-01-17T18:27:22.571Z,82.32
2018-01-17T18:29:50.946Z,81.94
2018-01-17T18:32:19.407Z,81.42
2018-01-17T18:34:48.619Z,80.97
2018-01-17T18:37:16.972Z,80.39
2018-01-17T18:39:46.678Z,80.39
2018-01-17T18:42:15.906Z,79.52
2018-01-17T18:44:44.273Z,79.58
2018-01-17T18:47:13.428Z,79.67
2018-01-17T18:49:41.879Z,79.77
2018-01-17T18:52:10.248Z,79.49
2018-01-17T18:54:38.699Z,79.19
2018-01-17T18:57:07.907Z,78.93
2018-01-17T18:59:36.337Z,79.29
2018-01-17T19:02:05.558Z,79.06
2018-01-17T19:04:33.965Z,79.19
2018-01-17T19:07:03.164Z,79.12
2018-01-17T19:09:31.537Z,79.01
2018-01-17T19:12:00.725Z,78.79
2018-01-17T19:14:29.866Z,79.15
2018-01-17T19:16:58.275Z,79.18
2018-01-17T19:19:26.715Z,79.41
2018-01-17T19:21:55.074Z,80.06
2018-01-17T19:24:24.210Z,80.04
2018-01-17T19:26:52.615Z,80.91
2018-01-17T19:29:21.060Z,82.32
2018-01-17T19:31:49.475Z,83.66
2018-01-17T19:34:17.832Z,84.49
2018-01-17T19:36:46.295Z,85.79
2018-01-17T19:39:14.718Z,86.59
2018-01-17T19:41:43.138Z,87.29
2018-01-17T19:44:11.600Z,87.89
2018-01-17T19:46:40.725Z,87.71
2018-01-17T19:49:09.131Z,87.41
2018-01-17T19:51:37.575Z,87.39
2018-01-17T19:54:05.936Z,87.36
2018-01-17T19:56:34.305Z,87.82
2018-01-17T19:59:03.545Z,87.86
2018-01-17T20:01:31.924Z,87.78
2018-01-17T20:04:00.362Z,88.23
2018-01-17T20:06:28.813Z,88.20
2018-01-17T20:08:57.364Z,88.72
2018-01-17T20:11:25.717Z,88.40
2018-01-17T20:13:54.895Z,88.61
2018-01-17T20:16:24.058Z,88.51
2018-01-17T20:18:52.467Z,88.35
2018-01-17T20:21:20.833Z,87.33
2018-01-17T20:23:49.275Z,86.96
2018-01-17T20:26:17.637Z,87.65
2018-01-17T20:28:46.752Z,88.39
2018-01-17T20:31:15.183Z,88.92
2018-01-17T20:33:43.626Z,89.05
2018-01-17T20:36:12.080Z,89.05
2018-01-17T20:38:40.549Z,89.47
2018-01-17T20:41:09.745Z,89.72
2018-01-17T20:43:38.873Z,90.28
2018-01-17T20:46:07.270Z,90.61
2018-01-17T20:48:35.679Z,91.06
2018-01-17T20:51:04.102Z,90.79
2018-01-17T20:53:32.480Z,90.52
2018-01-17T20:56:00.899Z,90.12
2018-01-17T20:58:29.342Z,89.89
2018-01-17T21:00:57.777Z,90.06
2018-01-17T21:03:26.196Z,90.45
2018-01-17T21:05:54.639Z,91.06
2018-01-17T21:08:23.072Z,91.37
2018-01-17T21:10:51.512Z,91.71
2018-01-17T21:13:20.666Z,91.40
2018-01-17T21:15:49.042Z,91.48
2018-01-17T21:18:17.393Z,91.10
2018-01-17T21:20:46.008Z,90.98
2018-01-17T21:23:14.384Z,90.72
2018-01-17T21:25:42.724Z,90.02
2018-01-17T21:28:11.884Z,89.17
2018-01-17T21:30:40.235Z,88.71
2018-01-17T21:33:08.653Z,88.34
2018-01-17T21:35:37.347Z,87.66
2018-01-17T21:38:06.543Z,87.10
2018-01-17T21:40:35.674Z,86.57
2018-01-17T21:43:09.640Z,86.36
2018-01-17T21:45:56.800Z,85.48
2018-01-17T21:48:25.221Z,85.29
2018-01-17T21:50:53.652Z,85.30
2018-01-17T21:53:22.041Z,85.77
2018-01-17T21:55:50.400Z,86.28
2018-01-17T21:58:19.553Z,86.09
2018-01-17T22:00:47.971Z,86.21
2018-01-17T22:03:17.163Z,86.33
2018-01-17T22:05:46.375Z,86.19
2018-01-17T22:08:14.806Z,86.30
2018-01-17T22:10:43.182Z,86.49
2018-01-17T22:13:11.557Z,86.47
2018-01-17T22:15:39.967Z,86.41
2018-01-17T22:18:08.348Z,86.39
2018-01-17T22:20:36.757Z,86.43
2018-01-17T22:23:06.091Z,86.33
2018-01-17T22:25:34.520Z,86.41
2018-01-17T22:28:03.649Z,86.64
2018-01-17T22:30:32.103Z,86.41
2018-01-17T22:33:01.296Z,86.69
2018-01-17T22:35:30.432Z,86.62
2018-01-17T22:37:58.805Z,86.44
2018-01-17T22:40:27.227Z,86.20
2018-01-17T22:42:55.671Z,86.25
2018-01-17T22:45:24.121Z,86.43
2018-01-17T22:47:52.576Z,86.79
2018-01-17T22:50:21.003Z,86.96
2018-01-17T22:52:49.455Z,86.61
2018-01-17T22:55:18.663Z,86.79
2018-01-17T22:57:47.103Z,86.80
2018-01-17T23:00:20.265Z,86.99
2018-01-17T23:02:48.680Z,86.86
2018-01-17T23:05:17.099Z,87.03
2018-01-17T23:07:45.590Z,87.10
2018-01-17T23:10:14.004Z,87.22
2018-01-17T23:12:42.385Z,87.63
2018-01-17T23:15:10.736Z,87.58
2018-01-17T23:17:39.096Z,87.83
2018-01-17T23:20:08.240Z,88.01
2018-01-17T23:22:36.597Z,88.10
2018-01-17T23:25:05.023Z,88.17
2018-01-17T23:27:34.244Z,88.51
2018-01-17T23:30:03.011Z,88.66
2018-01-17T23:32:31.427Z,88.76
2018-01-17T23:34:59.874Z,88.69
2018-01-17T23:37:29.032Z,88.50
2018-01-17T23:39:57.399Z,88.91
2018-01-17T23:42:25.824Z,89.24
2018-01-17T23:44:54.247Z,89.17
2018-01-17T23:47:22.696Z,89.00
2018-01-17T23:49:51.847Z,89.10
2018-01-17T23:52:20.192Z,89.22
2018-01-17T23:54:48.614Z,89.23
2018-01-17T23:57:16.985Z,89.28
2018-01-17T23:59:45.353Z,89.58
